Time;durP1;ratioP1;P1;durP2;ratioP2;P2;SDS_P1;SDS_P2;PMS_P1;PMS_P2;Temp;Humidity;BMP_temperature;BMP_pressure;BME280_temperature;BME280_humidity;BME280_pressure;Samples;Min_cycle;Max_cycle;Signal;HPM_P1;HPM_P2
2021/11/23 00:00:10;;;;;;;;;86.00;69.00;;;;;;;;6490909;31;8883;-55
2021/11/23 00:06:16;;;;;;;;;88.00;68.00;;;;;;;;6490054;39;9049;-56
2021/11/23 00:12:20;;;;;;;;;90.25;69.75;;;;;;;;6489399;47;8863;-56
2021/11/23 00:18:22;;;;;;;;;88.00;68.00;;;;;;;;6490103;39;8977;-57
2021/11/23 00:24:25;;;;;;;;;90.25;69.25;;;;;;;;6489893;39;8910;-56
2021/11/23 00:30:29;;;;;;;;;85.00;68.00;;;;;;;;6489516;31;9487;-56
2021/11/23 00:36:32;;;;;;;;;83.50;66.00;;;;;;;;6489625;39;9610;-57
2021/11/23 00:42:34;;;;;;;;;82.00;65.00;;;;;;;;6489862;31;8882;-55
2021/11/23 00:48:37;;;;;;;;;79.50;63.00;;;;;;;;6490104;31;9503;-57
2021/11/23 00:54:39;;;;;;;;;81.75;63.00;;;;;;;;6489118;47;8938;-57
2021/11/23 01:00:41;;;;;;;;;74.50;59.75;;;;;;;;6489310;47;8827;-55
2021/11/23 01:06:46;;;;;;;;;67.25;55.75;;;;;;;;6489978;39;8862;-56
2021/11/23 01:12:49;;;;;;;;;76.00;60.50;;;;;;;;6491924;31;8910;-57
2021/11/23 01:18:51;;;;;;;;;79.75;61.50;;;;;;;;6491167;46;8961;-57
2021/11/23 01:24:55;;;;;;;;;77.25;61.00;;;;;;;;6490761;31;8843;-56
2021/11/23 01:31:00;;;;;;;;;80.50;61.50;;;;;;;;6491219;39;8862;-57
2021/11/23 01:37:03;;;;;;;;;72.50;59.50;;;;;;;;6491068;39;9045;-57
2021/11/23 01:43:09;;;;;;;;;68.25;54.50;;;;;;;;6492328;39;8922;-57
2021/11/23 01:49:11;;;;;;;;;69.50;56.25;;;;;;;;6491066;46;8827;-57
2021/11/23 01:55:14;;;;;;;;;66.75;55.25;;;;;;;;6491150;39;9621;-57
2021/11/23 02:01:17;;;;;;;;;70.25;56.50;;;;;;;;6490851;46;8843;-57
2021/11/23 02:07:20;;;;;;;;;69.25;56.75;;;;;;;;6492189;31;8822;-56
2021/11/23 02:13:25;;;;;;;;;73.50;55.00;;;;;;;;6491355;31;8926;-55
2021/11/23 02:19:28;;;;;;;;;70.00;59.00;;;;;;;;6491459;39;8906;-57
2021/11/23 02:25:31;;;;;;;;;69.50;55.50;;;;;;;;6491343;39;8987;-55
2021/11/23 02:31:34;;;;;;;;;70.50;57.00;;;;;;;;6490785;46;8854;-56
2021/11/23 02:37:44;;;;;;;;;67.50;53.00;;;;;;;;6490753;39;8963;-55
2021/11/23 02:43:47;;;;;;;;;67.75;55.50;;;;;;;;6491057;46;8937;-55
2021/11/23 02:49:50;;;;;;;;;69.25;56.75;;;;;;;;6490775;31;9630;-57
2021/11/23 02:55:52;;;;;;;;;67.75;53.75;;;;;;;;6490390;39;8906;-55
2021/11/23 03:01:55;;;;;;;;;68.25;51.75;;;;;;;;6489413;39;9587;-57
2021/11/23 03:08:00;;;;;;;;;63.50;50.25;;;;;;;;6490317;31;9084;-56
2021/11/23 03:14:02;;;;;;;;;64.25;51.75;;;;;;;;6490674;39;9757;-58
2021/11/23 03:20:06;;;;;;;;;59.50;48.75;;;;;;;;6490389;31;8997;-57
2021/11/23 03:26:09;;;;;;;;;58.00;48.00;;;;;;;;6490312;39;8943;-56
2021/11/23 03:32:12;;;;;;;;;57.50;48.50;;;;;;;;6490706;39;8904;-56
2021/11/23 03:38:16;;;;;;;;;61.00;47.00;;;;;;;;6490091;46;8931;-56
2021/11/23 03:44:19;;;;;;;;;60.25;47.50;;;;;;;;6489976;39;8831;-56
2021/11/23 03:50:27;;;;;;;;;64.25;51.25;;;;;;;;6490062;39;9519;-56
2021/11/23 03:56:30;;;;;;;;;55.50;47.00;;;;;;;;6491031;39;8929;-55
2021/11/23 04:02:32;;;;;;;;;62.50;48.75;;;;;;;;6490006;39;8876;-55
2021/11/23 04:08:34;;;;;;;;;62.75;50.25;;;;;;;;6490129;39;8909;-57
2021/11/23 04:14:39;;;;;;;;;64.50;53.75;;;;;;;;6490539;39;8867;-55
2021/11/23 04:20:41;;;;;;;;;56.75;46.75;;;;;;;;6490010;39;8932;-54
2021/11/23 04:26:43;;;;;;;;;60.50;51.00;;;;;;;;6490340;31;8884;-56
2021/11/23 04:32:45;;;;;;;;;67.25;56.00;;;;;;;;6490347;31;9664;-56
2021/11/23 04:38:47;;;;;;;;;60.00;50.75;;;;;;;;6490543;31;8922;-56
2021/11/23 04:44:51;;;;;;;;;65.25;51.75;;;;;;;;6492319;39;8885;-57
2021/11/23 04:50:55;;;;;;;;;57.00;47.50;;;;;;;;6492722;31;8913;-57
2021/11/23 04:56:57;;;;;;;;;60.25;49.50;;;;;;;;6492065;31;8953;-56
2021/11/23 05:02:59;;;;;;;;;58.00;49.50;;;;;;;;6462005;39;8974;-57
2021/11/23 05:09:03;;;;;;;;;61.75;48.00;;;;;;;;6492293;31;8918;-56
2021/11/23 05:15:06;;;;;;;;;56.00;46.00;;;;;;;;6493500;39;8914;-55
